Halleck, Nevada
Current Conditions -  °F | °C
As of 12:56 AM on Friday 24 Oct 2014 (Local Time) from KEKO Reporting Station
Clear Clear  
Wind Chill: 42°   Ceiling: Unl
Heat Index: 42°   Visibility: 10mi
Dew Point: 22°   Wind: 3mph
Humidity: 45%   Direction: 90°E
Pressure: 30.11"   Gusts: NA
Location:  40.95°N, 115.45°W
Report Text: KEKO 240756Z AUTO 09003KT 10SM CLR 06/M06 A3011 RMK AO2 SLP167 T00561056 402280022
Loading
Personal Weather Stations






























Interactive Weather Map
Tropical Storm Tracking
New forecast layout! Learn more

10-Day Weather Forecast

Advertisements
Track Severe Weather on mobile